Flight Track Log - Related Links

Times and Time Zones

All times are in EST time to prevent confusion due to time zone crossing. See the PDT4155 flight status page for this flight to view local times or setup timezone preferences in your user account.

Time Position Orientation Groundspeed Altitude Reporting Facility
EST Latitude Longitude Course Direction KTS MPH feet Rate Location/Type
Fri 07:22:00 AM 42.0596 -75.9309 180° South  Level Estimated
Fri 07:23:00 AM 42.0086 -75.9313 180° South  Level FlightAware Approximate
Fri 07:24:00 AM 41.9576 -75.9317 180° South  Level FlightAware Approximate
Fri 07:25:00 AM 41.9065 -75.9321 180° South  Level FlightAware Approximate
Fri 07:26:00 AM 41.8555 -75.9325 180° South  Level FlightAware Approximate
Fri 07:27:00 AM 41.8062 -75.9148 154° Southeast  Level Estimated
Fri 07:28:00 AM 41.7569 -75.8971 160° South  Level Estimated
Fri 07:29:00 AM 41.7075 -75.8794 159° South  Level Estimated
Fri 07:30:00 AM 41.6585 -75.8606 164° South  Level FlightAware Approximate
Fri 07:31:00 AM 41.6094 -75.8418 164° South  Level FlightAware Approximate
Fri 07:32:00 AM 41.5601 -75.8243 153° Southeast  Level Estimated
Fri 07:33:00 AM 41.5107 -75.8068 161° South  Level Estimated
Fri 07:34:00 AM 41.4630 -75.7826 159° South  Level FlightAware Approximate
Fri 07:35:00 AM 41.4153 -75.7584 159° South  Level FlightAware Approximate
Fri 07:36:00 AM 41.3676 -75.7343 159° South  Level FlightAware Approximate
Fri 07:37:00 AM 41.3181 -75.7176 162° South  Level Estimated
Fri 07:38:00 AM 41.2700 -75.6946 160° South  Level FlightAware Approximate
Fri 07:39:00 AM 41.2220 -75.6718 160° South  Level FlightAware Approximate
Fri 07:40:00 AM 41.1739 -75.6490 160° South  Level FlightAware Approximate
Fri 07:41:00 AM 41.1258 -75.6262 160° South  Level FlightAware Approximate
Fri 07:42:00 AM 41.0762 -75.6106 159° South  Level Estimated
Fri 07:43:00 AM 41.0265 -75.5951 163° South  Level Estimated
Fri 07:43:26 AM 40.7167 -75.6500 190° South 267 307 7,900  Level Philadelphia TRACON
Fri 07:44:00 AM 40.9784 -75.5725 160° South  Level FlightAware Approximate
Fri 07:44:08 AM 40.6500 -75.6333 169° South 277 319 7,500  Level Philadelphia TRACON
Fri 07:45:00 AM 40.9303 -75.5499 160° South  Level FlightAware Approximate
Fri 07:45:08 AM 40.5833 -75.6167 169° South 277 319 7,000  Level Philadelphia TRACON
Fri 07:46:00 AM 40.8822 -75.5273 160° South  Level FlightAware Approximate
Fri 07:46:08 AM 40.5167 -75.5500 143° Southeast 299 344 6,500  Level Philadelphia TRACON
Fri 07:47:00 AM 40.8340 -75.5048 160° South  Level FlightAware Approximate
Fri 07:47:08 AM 40.4667 -75.4833 135° Southeast 293 337 6,000  Level Philadelphia TRACON
Fri 07:48:00 AM 40.7841 -75.4909 190° South  Level Estimated
Fri 07:48:14 AM 40.4000 -75.4000 136° Southeast 289 333 5,500  Level Philadelphia TRACON
Fri 07:49:14 AM 40.3333 -75.3167 136° Southeast 285 328 5,000 -500 Descending Philadelphia TRACON
Fri 07:50:14 AM 40.2833 -75.2500 135° Southeast 278 320 4,500 -500 Descending Philadelphia TRACON
Fri 07:51:14 AM 40.2333 -75.1833 134° Southeast 274 315 4,000 -250 Descending Philadelphia TRACON
Fri 07:52:14 AM 40.1833 -75.1167 134° Southeast 259 298 4,000  Level Philadelphia TRACON
Fri 07:53:14 AM 40.1333 -75.0500 134° Southeast 256 295 4,000  Level Philadelphia TRACON
Fri 07:54:14 AM 40.0667 -75.0167 159° South 211 243 4,000 -50 Level Philadelphia TRACON
Fri 07:55:14 AM 40.0167 -74.9833 153° Southeast 214 246 3,900 -500 Descending Philadelphia TRACON
Fri 07:56:14 AM 39.9667 -74.9833 180° South 193 222 3,000 -450 Descending Philadelphia TRACON
Fri 07:57:14 AM 39.9167 -75.0167 207° Southwest 156 180 3,000 -200 Level Philadelphia TRACON
Fri 07:58:14 AM 39.9167 -75.0667 270° West 155 178 2,600 -632 Descending Philadelphia TRACON
Fri 07:59:08 AM 39.9000 -75.1167 247° West 141 162 1,800 -789 Descending Philadelphia TRACON
Fri 08:00:08 AM 39.9000 -75.1500 270° West 99 114 1,100 -619 Descending Philadelphia TRACON
Fri 08:01:14 AM 39.8833 -75.2000 247° West 99 114 500 -545 Descending Philadelphia TRACON

Login

Don't have an account? Register now (free) for customized features, flight alerts, and more!